Time;durP1;ratioP1;P1;durP2;ratioP2;P2;SDS_P1;SDS_P2;PMS_P1;PMS_P2;Temp;Humidity;BMP_temperature;BMP_pressure;BME280_temperature;BME280_humidity;BME280_pressure;Samples;Min_cycle;Max_cycle;Signal;HPM_P1;HPM_P2
2022/01/25 00:31:10;;;;;;;8.30;3.42;;;;;;;-16.39;58.23;94599.66;5050266;28;20124;-51
2022/01/25 00:33:36;;;;;;;0.93;0.93;;;;;;;-16.79;58.09;94590.63;5049673;28;20029;-50
2022/01/25 00:36:04;;;;;;;4.00;2.72;;;;;;;-16.70;58.29;94597.22;5049709;28;20056;-49
2022/01/25 00:38:30;;;;;;;3.25;2.35;;;;;;;-16.47;57.64;94599.88;5049809;28;20025;-49
2022/01/25 00:40:56;;;;;;;7.22;2.67;;;;;;;-16.49;57.16;94587.03;5049998;28;20078;-47
2022/01/25 00:43:23;;;;;;;2.92;2.72;;;;;;;-16.76;57.55;94608.44;5050088;28;20036;-50
2022/01/25 00:45:51;;;;;;;6.53;4.07;;;;;;;-17.26;58.01;94610.03;5069528;28;20054;-49
2022/01/25 00:48:30;;;;;;;15.40;4.32;;;;;;;-17.22;59.85;94587.16;5069835;28;20040;-50
2022/01/25 00:51:17;;;;;;;6.75;3.35;;;;;;;-16.97;59.01;94613.28;5069341;28;20033;-49
2022/01/25 00:53:55;;;;;;;7.72;3.00;;;;;;;-17.01;56.87;94586.03;5069788;28;20158;-52
2022/01/25 00:56:21;;;;;;;16.63;4.13;;;;;;;-16.94;57.61;94584.31;5069663;28;20082;-49
2022/01/25 00:58:46;;;;;;;4.13;3.25;;;;;;;-17.02;58.71;94608.28;5069803;28;20024;-48
2022/01/25 01:01:12;;;;;;;4.97;2.58;;;;;;;-17.23;59.14;94596.16;5070049;28;20058;-49
2022/01/25 01:03:38;;;;;;;14.55;4.57;;;;;;;-17.09;59.39;94589.66;5073463;28;20028;-49
2022/01/25 01:06:05;;;;;;;8.57;7.00;;;;;;;-17.06;58.20;94596.91;5073721;28;20025;-49
2022/01/25 01:08:32;;;;;;;21.38;6.70;;;;;;;-16.86;58.52;94601.03;5073341;28;20024;-49
2022/01/25 01:10:59;;;;;;;24.98;8.73;;;;;;;-17.06;58.71;94597.63;5073256;28;20051;-52
2022/01/25 01:16:33;;;;;;;11.25;5.85;;;;;;;-17.36;58.85;94604.56;5073526;28;20126;-50
2022/01/25 01:35:41;;;;;;;12.77;4.78;;;;;;;-17.29;59.27;94584.38;5071123;28;20517;-50
2022/01/25 01:48:29;;;;;;;9.38;5.53;;;;;;;-17.51;56.22;94571.84;5052743;28;20025;-49
2022/01/25 01:51:03;;;;;;;1.17;1.17;;;;;;;-17.34;56.57;94579.34;5052533;28;20028;-51
2022/01/25 01:53:29;;;;;;;6.63;3.08;;;;;;;-17.31;57.81;94583.94;5052625;28;20029;-48
2022/01/25 01:55:55;;;;;;;13.18;5.35;;;;;;;-17.43;57.15;94564.84;5052563;28;20071;-49
2022/01/25 01:58:20;;;;;;;33.55;10.77;;;;;;;-17.47;60.27;94575.31;5052719;28;20021;-49
2022/01/25 02:00:47;;;;;;;3.28;2.92;;;;;;;-17.42;59.70;94571.63;5052573;28;20021;-50
2022/01/25 02:03:14;;;;;;;10.93;6.43;;;;;;;-18.32;58.15;94566.63;5052615;28;20021;-49
2022/01/25 02:05:40;;;;;;;3.33;2.97;;;;;;;-18.52;59.44;94573.69;5052359;28;20021;-47
2022/01/25 02:08:05;;;;;;;6.50;3.30;;;;;;;-18.50;58.68;94575.97;5052620;28;20090;-48
2022/01/25 02:10:31;;;;;;;5.30;4.80;;;;;;;-18.78;59.37;94574.16;5052216;28;20509;-48
2022/01/25 02:12:57;;;;;;;4.97;3.67;;;;;;;-18.54;60.24;94570.63;5051967;28;20531;-49
2022/01/25 02:15:27;;;;;;;6.93;3.22;;;;;;;-18.28;60.12;94570.09;5052330;28;20021;-49
2022/01/25 02:23:18;;;;;;;14.15;3.97;;;;;;;-17.95;59.60;94566.00;5052261;28;20087;-48
2022/01/25 02:25:49;;;;;;;31.90;5.00;;;;;;;-18.36;58.43;94563.88;5051963;28;20031;-47
2022/01/25 02:28:14;;;;;;;2.90;2.20;;;;;;;-18.62;58.74;94568.16;5051910;28;20025;-49
2022/01/25 02:30:41;;;;;;;6.38;3.63;;;;;;;-18.55;58.27;94555.16;5052091;28;20045;-47
2022/01/25 09:12:22;;;;;;;60.45;31.95;;;;;;;-9.05;57.52;94421.72;5042375;28;1362542;-40
2022/01/25 09:14:48;;;;;;;59.00;27.65;;;;;;;-9.00;56.94;94431.97;5090977;28;20032;-40
2022/01/25 09:17:14;;;;;;;34.45;15.40;;;;;;;-9.23;58.67;94381.81;5091400;28;20048;-41
2022/01/25 09:19:39;;;;;;;29.60;16.15;;;;;;;-8.85;59.83;94415.34;5091391;28;20028;-41
2022/01/25 09:22:06;;;;;;;43.80;17.90;;;;;;;-8.53;60.00;94420.25;5090951;28;20065;-41
2022/01/25 09:24:32;;;;;;;43.45;22.25;;;;;;;-8.72;58.15;94400.25;5091545;28;20016;-40
2022/01/25 09:26:57;;;;;;;33.25;16.90;;;;;;;-8.46;58.83;94414.06;5087232;28;20563;-40
2022/01/25 09:29:23;;;;;;;27.88;15.05;;;;;;;-8.27;60.14;94382.00;5087317;28;20016;-40
2022/01/25 09:31:50;;;;;;;32.17;15.27;;;;;;;-7.78;59.11;94389.25;5075853;28;20044;-42
2022/01/25 09:34:15;;;;;;;26.92;15.23;;;;;;;-7.63;58.35;94395.13;5069205;28;20077;-39
2022/01/25 09:36:41;;;;;;;24.23;14.00;;;;;;;-7.61;58.50;94384.72;5068116;28;20439;-39
2022/01/25 09:39:07;;;;;;;28.30;13.05;;;;;;;-7.09;58.35;94390.28;5069223;28;20048;-39
2022/01/25 09:41:32;;;;;;;19.30;10.93;;;;;;;-6.75;56.61;94393.41;5068621;28;20035;-39
2022/01/25 09:43:58;;;;;;;29.45;12.40;;;;;;;-7.31;58.54;94383.81;5086859;28;20047;-40
2022/01/25 09:46:23;;;;;;;31.58;16.90;;;;;;;-6.67;58.20;94386.72;5081256;28;20408;-40
2022/01/25 09:48:49;;;;;;;33.10;16.60;;;;;;;-5.90;57.06;94380.78;5051308;28;20032;-40
2022/01/25 09:51:17;;;;;;;29.85;15.25;;;;;;;-4.82;55.67;94377.13;5050800;28;20115;-40
2022/01/25 09:53:43;;;;;;;24.90;14.35;;;;;;;-5.32;51.78;94325.81;5067766;28;20024;-41
2022/01/25 09:56:08;;;;;;;28.25;13.85;;;;;;;-4.79;52.02;94375.50;5052784;28;20024;-40
2022/01/25 09:58:36;;;;;;;24.92;11.50;;;;;;;-4.82;50.30;94371.75;5070237;28;20023;-41
2022/01/25 10:01:03;;;;;;;29.98;15.73;;;;;;;-4.44;51.07;94376.44;5070423;28;20016;-41
2022/01/25 10:03:34;;;;;;;23.73;13.27;;;;;;;-4.03;49.12;94371.66;5070648;28;20023;-40
2022/01/25 10:06:02;;;;;;;25.10;15.52;;;;;;;-2.87;48.88;94355.47;5070710;28;20459;-41
2022/01/25 10:08:31;;;;;;;25.27;15.45;;;;;;;-1.42;45.17;94356.03;5084760;28;20475;-40
2022/01/25 10:11:03;;;;;;;26.80;14.52;;;;;;;-0.60;43.41;94343.97;5090180;28;20047;-40
2022/01/25 10:13:31;;;;;;;24.83;13.43;;;;;;;-0.22;41.34;94346.16;5072774;28;20032;-41
2022/01/25 10:16:02;;;;;;;26.67;15.98;;;;;;;0.74;39.57;94340.34;5090394;28;20028;-41
2022/01/25 10:18:48;;;;;;;26.88;15.02;;;;;;;0.37;38.31;94339.84;5090440;28;20050;-41
2022/01/25 10:21:16;;;;;;;25.73;16.13;;;;;;;0.33;37.71;94319.47;5090731;28;20024;-41
2022/01/25 10:24:13;;;;;;;26.70;16.60;;;;;;;-0.18;38.72;94333.91;5090319;28;20039;-41
2022/01/25 10:26:58;;;;;;;27.73;15.20;;;;;;;-0.03;39.86;94340.19;5078029;28;20032;-40
2022/01/25 10:29:25;;;;;;;22.77;13.88;;;;;;;0.07;38.54;94332.75;5090265;28;20028;-40
2022/01/25 10:32:02;;;;;;;32.67;16.05;;;;;;;0.65;38.28;94337.72;5090290;28;20569;-40
2022/01/25 10:34:45;;;;;;;23.88;14.23;;;;;;;0.53;37.01;94327.81;5090046;28;20020;-40
2022/01/25 10:37:13;;;;;;;31.13;16.60;;;;;;;0.73;36.86;94323.31;5090533;28;20034;-40
2022/01/25 10:39:41;;;;;;;27.13;16.73;;;;;;;0.58;37.05;94319.03;5090169;28;20024;-40
2022/01/25 10:42:09;;;;;;;27.27;15.48;;;;;;;0.74;37.26;94322.09;5090455;28;20020;-39
2022/01/25 10:44:53;;;;;;;29.48;20.40;;;;;;;1.77;36.99;94316.75;5090490;28;20088;-41
2022/01/25 10:47:40;;;;;;;27.75;16.65;;;;;;;1.37;35.47;94317.31;5090433;28;20028;-40
2022/01/25 10:50:22;;;;;;;27.45;12.95;;;;;;;1.50;35.96;94309.63;5089739;28;20043;-40
2022/01/25 10:53:04;;;;;;;27.83;17.02;;;;;;;1.46;35.57;94304.38;5090381;28;20672;-40
2022/01/25 10:55:46;;;;;;;30.30;17.15;;;;;;;1.34;37.45;94305.41;5090743;28;20059;-40
2022/01/25 10:58:12;;;;;;;32.33;19.58;;;;;;;2.26;36.14;94308.59;5094448;28;20043;-42
2022/01/25 11:00:42;;;;;;;41.15;24.85;;;;;;;2.27;36.27;94296.47;5094091;28;20112;-41
2022/01/25 11:03:08;;;;;;;31.17;18.25;;;;;;;2.78;35.25;94290.44;5092968;28;20044;-41
2022/01/25 11:05:36;;;;;;;30.77;17.65;;;;;;;2.04;34.38;94279.06;5073714;28;20477;-41
2022/01/25 11:08:17;;;;;;;28.98;18.80;;;;;;;2.29;37.03;94280.41;5073829;28;20020;-41
2022/01/25 11:10:52;;;;;;;30.48;19.13;;;;;;;2.21;36.17;94274.59;5073446;28;20127;-41
2022/01/25 11:16:02;;;;;;;32.15;19.77;;;;;;;2.62;38.08;94266.47;5073697;28;20029;-41
2022/01/25 11:18:30;;;;;;;33.33;20.60;;;;;;;3.50;34.99;94274.81;5073319;28;20019;-41
2022/01/25 11:20:56;;;;;;;51.30;29.83;;;;;;;3.98;34.45;94267.53;5073964;28;20178;-41
2022/01/25 11:23:22;;;;;;;32.25;20.13;;;;;;;4.42;33.31;94267.03;5084224;28;20030;-41
2022/01/25 11:25:48;;;;;;;34.17;20.73;;;;;;;4.32;33.11;94263.75;5090921;28;20020;-42
2022/01/25 11:28:14;;;;;;;34.53;20.90;;;;;;;4.12;34.70;94260.41;5092055;28;20077;-41
2022/01/25 11:30:41;;;;;;;33.58;20.23;;;;;;;4.69;33.42;94260.22;5093716;28;20032;-40
2022/01/25 11:33:09;;;;;;;36.28;21.60;;;;;;;4.71;33.25;94253.00;5093661;28;20432;-41
2022/01/25 11:35:35;;;;;;;33.90;19.77;;;;;;;3.69;32.45;94245.94;5058813;28;20047;-41
2022/01/25 11:38:01;;;;;;;35.28;20.77;;;;;;;4.66;33.78;94242.78;5068569;28;20032;-41
2022/01/25 11:40:31;;;;;;;31.80;19.05;;;;;;;5.20;31.04;94229.75;5052907;28;20043;-41
2022/01/25 11:42:59;;;;;;;28.50;18.02;;;;;;;5.58;31.82;94228.31;5083203;28;20074;-41
2022/01/25 11:45:33;;;;;;;32.40;19.50;;;;;;;5.39;30.55;94228.81;5090821;28;20055;-41
2022/01/25 11:48:00;;;;;;;34.00;21.52;;;;;;;5.49;31.48;94229.31;5090571;28;20078;-40
2022/01/25 11:50:28;;;;;;;32.97;20.95;;;;;;;5.00;32.59;94232.72;5091466;28;20067;-41
2022/01/25 11:52:55;;;;;;;28.95;19.23;;;;;;;4.62;32.81;94223.13;5090832;28;20016;-41
2022/01/25 11:55:24;;;;;;;45.00;28.23;;;;;;;4.49;32.20;94200.94;5090880;28;20661;-41
2022/01/25 11:58:01;;;;;;;36.22;22.50;;;;;;;4.20;31.90;94215.72;5090449;28;20107;-41
2022/01/25 12:00:54;;;;;;;38.50;22.13;;;;;;;3.89;33.79;94204.88;5080374;28;20055;-41
2022/01/25 12:03:26;;;;;;;39.38;24.05;;;;;;;3.82;33.41;94216.25;5076135;28;20032;-41
2022/01/25 12:05:56;;;;;;;34.88;19.20;;;;;;;3.57;33.51;94206.13;5072411;28;20036;-40
2022/01/25 12:08:37;;;;;;;38.55;22.55;;;;;;;3.73;35.04;94208.22;5069743;28;20405;-40
2022/01/25 12:11:30;;;;;;;28.30;17.02;;;;;;;3.72;31.94;94207.50;5070063;28;20049;-40
2022/01/25 12:14:41;;;;;;;31.58;19.15;;;;;;;3.05;35.36;94214.34;5070235;28;20551;-40
2022/01/25 12:17:19;;;;;;;31.67;17.88;;;;;;;2.80;34.18;94204.19;5066978;28;20049;-40
2022/01/25 12:19:54;;;;;;;34.42;19.63;;;;;;;2.80;35.71;94200.72;5070347;28;20032;-40
2022/01/25 12:22:25;;;;;;;32.60;20.42;;;;;;;3.12;37.20;94207.00;5077053;28;20020;-41
2022/01/25 12:25:19;;;;;;;37.95;22.05;;;;;;;3.27;35.30;94204.91;5068885;28;20109;-41
2022/01/25 12:28:09;;;;;;;41.22;22.67;;;;;;;3.68;36.13;94201.50;5088399;28;20020;-40
2022/01/25 12:30:40;;;;;;;34.05;21.77;;;;;;;3.18;34.73;94191.41;5089962;28;20539;-41
2022/01/25 12:33:08;;;;;;;28.35;18.02;;;;;;;1.77;35.96;94186.84;5090189;28;20422;-40
2022/01/25 12:35:35;;;;;;;27.67;16.58;;;;;;;2.06;36.97;94177.81;5076577;28;20038;-40
2022/01/25 12:38:03;;;;;;;37.70;20.70;;;;;;;2.15;35.34;94174.94;5069711;28;20428;-40
2022/01/25 12:40:32;;;;;;;29.13;17.35;;;;;;;1.94;36.59;94168.75;5070343;28;20029;-40
2022/01/25 12:43:16;;;;;;;;;;;;;;;2.23;37.58;94171.34;5070988;28;20034;-41
2022/01/25 12:45:55;;;;;;;34.75;18.67;;;;;;;1.84;36.95;94161.19;5069545;28;19908;-40
2022/01/25 12:48:21;;;;;;;;;;;;;;;1.16;37.01;94158.72;5070082;28;20029;-40
2022/01/25 12:50:50;;;;;;;28.27;16.90;;;;;;;1.29;37.49;94156.47;5069720;28;19919;-40
2022/01/25 12:53:23;;;;;;;38.33;19.73;;;;;;;1.10;39.63;94155.19;5069390;28;20033;-40
2022/01/25 12:55:51;;;;;;;26.70;16.20;;;;;;;1.26;39.91;94149.22;5072063;28;20478;-41
2022/01/25 12:58:19;;;;;;;28.38;14.93;;;;;;;1.04;40.02;94137.28;5089499;28;20443;-41
2022/01/25 13:00:47;;;;;;;30.90;17.55;;;;;;;0.95;39.66;94143.56;5089342;28;20024;-41
2022/01/25 13:03:20;;;;;;;41.35;22.70;;;;;;;0.60;41.79;94142.72;5089463;28;20039;-40
2022/01/25 13:05:56;;;;;;;25.67;14.90;;;;;;;0.89;39.71;94142.69;5090237;28;20019;-40
2022/01/25 13:08:46;;;;;;;22.13;13.68;;;;;;;0.73;41.42;94135.78;5089632;28;20031;-41
2022/01/25 13:11:19;;;;;;;23.85;15.20;;;;;;;0.59;41.60;94127.63;5089141;28;20097;-41
2022/01/25 13:13:58;;;;;;;23.63;14.18;;;;;;;0.30;43.08;94133.03;5089157;28;20028;-40
2022/01/25 13:16:41;;;;;;;27.25;14.77;;;;;;;0.42;42.05;94129.28;5089340;28;20123;-41
2022/01/25 13:19:07;;;;;;;23.35;13.38;;;;;;;0.34;40.93;94128.16;5088330;28;20039;-40
2022/01/25 13:21:42;;;;;;;21.20;12.20;;;;;;;0.50;42.48;94130.41;5088894;28;20019;-41
2022/01/25 13:24:09;;;;;;;21.73;12.65;;;;;;;0.36;41.36;94121.06;5089283;28;20051;-40
2022/01/25 13:26:39;;;;;;;20.52;12.07;;;;;;;0.22;41.05;94121.03;5087513;28;20028;-40
2022/01/25 13:32:13;;;;;;;21.25;12.48;;;;;;;-0.18;42.41;94122.25;5032775;28;20028;-40
2022/01/25 13:34:39;;;;;;;22.05;12.50;;;;;;;-0.20;43.26;94121.97;5089212;28;20390;-41
2022/01/25 13:37:05;;;;;;;109.85;45.20;;;;;;;-0.30;42.97;94115.09;5082864;28;20044;-40
2022/01/25 13:39:30;;;;;;;94.50;41.65;;;;;;;-0.31;43.06;94115.56;5077350;28;20033;-40
2022/01/25 13:42:04;;;;;;;66.55;27.45;;;;;;;-0.28;43.62;94117.34;5068611;28;20024;-40
2022/01/25 13:47:14;;;;;;;48.42;32.50;;;;;;;-0.80;43.68;94089.63;5073032;28;20043;-40
2022/01/25 13:49:40;;;;;;;31.02;18.55;;;;;;;-0.68;44.90;94116.97;5080752;28;20028;-40
2022/01/25 13:52:06;;;;;;;24.05;12.85;;;;;;;-0.85;44.55;94092.97;5075762;28;20411;-40
2022/01/25 13:54:32;;;;;;;32.33;16.05;;;;;;;-0.86;44.05;94109.69;5088832;28;20035;-40
2022/01/25 13:56:59;;;;;;;34.95;17.38;;;;;;;-0.95;44.28;94109.72;5088818;28;20451;-40
2022/01/25 13:59:26;;;;;;;32.45;18.85;;;;;;;-1.05;45.83;94109.03;5070736;28;20027;-40
2022/01/25 14:01:51;;;;;;;32.63;17.05;;;;;;;-1.27;44.74;94075.22;5077063;28;20024;-41
2022/01/25 14:04:20;;;;;;;23.73;14.10;;;;;;;-1.36;44.99;94108.53;5070318;28;20497;-40
2022/01/25 14:06:53;;;;;;;43.07;21.93;;;;;;;-1.35;45.69;94103.84;5077713;28;20034;-40
2022/01/25 14:09:34;;;;;;;27.50;15.25;;;;;;;-1.56;46.00;94100.91;5061535;28;20031;-41
2022/01/25 14:25:39;;;;;;;24.65;14.75;;;;;;;-2.13;46.99;94101.88;5087279;28;20102;-40
2022/01/25 14:28:14;;;;;;;26.35;13.07;;;;;;;-2.28;48.42;94100.22;5085623;28;20020;-39
2022/01/25 14:30:46;;;;;;;27.85;15.10;;;;;;;-2.67;48.85;94093.72;5087724;28;20056;-39
2022/01/25 14:33:15;;;;;;;26.33;14.68;;;;;;;-2.72;49.37;94099.72;5087882;28;20028;-40
2022/01/25 14:35:49;;;;;;;28.00;14.82;;;;;;;-2.88;48.13;94091.91;5084801;28;20039;-39
2022/01/25 14:38:38;;;;;;;27.90;16.13;;;;;;;-2.71;47.94;94101.22;5067621;28;20107;-40
2022/01/25 14:41:08;;;;;;;27.80;15.77;;;;;;;-2.89;48.55;94095.78;5067882;28;20051;-39
2022/01/25 14:43:37;;;;;;;51.10;22.75;;;;;;;-3.30;49.48;94091.59;5067725;28;20090;-40
2022/01/25 14:46:09;;;;;;;36.50;17.05;;;;;;;-3.59;49.95;94100.00;5067468;28;20085;-40
2022/01/25 14:48:37;;;;;;;39.08;17.50;;;;;;;-3.78;51.66;94098.41;5072959;28;20043;-40
2022/01/25 14:51:08;;;;;;;28.73;16.33;;;;;;;-3.89;52.53;94098.03;5087914;28;20500;-39
2022/01/25 14:53:34;;;;;;;27.27;16.25;;;;;;;-3.97;52.03;94089.47;5087858;28;20408;-39
2022/01/25 14:56:01;;;;;;;33.47;21.50;;;;;;;-3.81;51.69;94098.56;5087735;28;20020;-39
2022/01/25 15:01:13;;;;;;;66.65;30.80;;;;;;;-4.35;52.93;94107.00;5087457;28;20034;-39
2022/01/25 15:03:39;;;;;;;30.05;16.27;;;;;;;-4.46;53.22;94091.19;5081609;28;20032;-39
2022/01/25 15:06:05;;;;;;;34.10;18.17;;;;;;;-4.36;53.46;94098.16;5081094;28;20024;-39
2022/01/25 15:08:31;;;;;;;33.97;18.75;;;;;;;-4.39;52.39;94109.81;5087366;28;20031;-40
2022/01/25 15:11:00;;;;;;;30.10;15.05;;;;;;;-4.55;53.31;94104.59;5086473;28;20487;-39
2022/01/25 15:13:28;;;;;;;33.80;17.60;;;;;;;-4.90;53.87;94097.69;5067801;28;20031;-39
2022/01/25 15:15:55;;;;;;;32.20;16.73;;;;;;;-5.07;54.53;94099.75;5067927;28;20421;-39
2022/01/25 15:18:28;;;;;;;29.25;16.50;;;;;;;-5.13;55.21;94104.16;5073187;28;20041;-39
2022/01/25 15:20:55;;;;;;;27.10;14.93;;;;;;;-5.37;54.94;94103.00;5087786;28;20109;-39
2022/01/25 15:23:22;;;;;;;22.55;12.40;;;;;;;-5.34;55.18;94112.91;5087433;28;20035;-39
2022/01/25 15:25:56;;;;;;;27.95;14.15;;;;;;;-5.90;55.32;94082.34;5083600;28;20020;-39
2022/01/25 15:28:23;;;;;;;27.17;15.13;;;;;;;-6.01;55.30;94116.84;5067069;28;20032;-39
2022/01/25 15:30:49;;;;;;;52.08;20.83;;;;;;;-6.15;55.81;94117.25;5067290;28;20089;-39
2022/01/25 15:33:14;;;;;;;40.35;19.50;;;;;;;-6.66;57.66;94119.72;5087183;28;20028;-39
2022/01/25 15:35:40;;;;;;;26.90;14.57;;;;;;;-6.75;59.02;94116.88;5086202;28;20310;-39
2022/01/25 15:38:06;;;;;;;29.95;14.93;;;;;;;-6.66;59.15;94125.09;5080462;28;20067;-39
2022/01/25 15:40:33;;;;;;;25.20;13.80;;;;;;;-6.72;58.60;94124.09;5067328;28;20050;-39
2022/01/25 15:42:59;;;;;;;33.00;17.55;;;;;;;-7.18;58.83;94119.84;5070368;28;20028;-39
2022/01/25 15:45:30;;;;;;;32.25;15.93;;;;;;;-7.36;59.52;94116.81;5080078;28;20746;-39
2022/01/25 15:47:56;;;;;;;43.58;24.13;;;;;;;-7.68;60.01;94118.69;5089572;28;20111;-39
2022/01/25 15:50:25;;;;;;;38.33;21.02;;;;;;;-7.96;61.25;94122.75;5088915;28;20103;-39
2022/01/25 15:52:51;;;;;;;28.42;14.52;;;;;;;-7.78;62.45;94112.41;5089230;28;20115;-39
2022/01/25 15:55:18;;;;;;;27.73;14.63;;;;;;;-7.63;61.52;94120.88;5088977;28;20099;-39
2022/01/25 15:57:44;;;;;;;28.30;14.55;;;;;;;-7.75;61.31;94117.69;5088595;28;20024;-39
2022/01/25 16:00:10;;;;;;;23.65;12.77;;;;;;;-7.76;60.77;94126.16;5089242;28;20077;-39
2022/01/25 16:02:36;;;;;;;23.42;13.02;;;;;;;-7.73;59.72;94130.69;5090742;28;20023;-39
2022/01/25 16:05:01;;;;;;;25.17;12.70;;;;;;;-8.37;62.05;94131.22;5090586;28;20039;-39
2022/01/25 16:07:27;;;;;;;23.25;11.80;;;;;;;-8.34;62.92;94132.34;5090509;28;20023;-39
2022/01/25 16:09:57;;;;;;;25.98;13.80;;;;;;;-8.32;61.93;94136.13;5090747;28;20085;-39
2022/01/25 16:12:25;;;;;;;24.77;11.82;;;;;;;-8.38;62.76;94129.72;5089971;28;20537;-39
2022/01/25 16:14:51;;;;;;;23.20;10.95;;;;;;;-8.24;63.02;94134.03;5090073;28;20107;-40
2022/01/25 16:17:16;;;;;;;14.25;8.25;;;;;;;-8.12;63.67;94130.72;5090165;28;20107;-39
2022/01/25 16:19:42;;;;;;;27.40;10.27;;;;;;;-8.36;64.00;94122.06;5090052;28;20123;-39
2022/01/25 16:22:07;;;;;;;22.10;10.07;;;;;;;-8.37;61.50;94136.59;5089987;28;20475;-39
2022/01/25 16:24:33;;;;;;;18.92;8.75;;;;;;;-8.45;60.13;94132.53;5090060;28;20509;-39
2022/01/25 16:26:59;;;;;;;21.05;12.00;;;;;;;-8.70;60.34;94134.91;5085212;28;20028;-39
2022/01/25 16:29:25;;;;;;;34.13;13.25;;;;;;;-8.62;59.70;94133.63;5084440;28;20020;-39
2022/01/25 16:31:53;;;;;;;28.30;13.80;;;;;;;-8.93;58.71;94138.38;5073036;28;20035;-39
2022/01/25 16:34:18;;;;;;;22.40;11.82;;;;;;;-9.63;60.76;94128.75;5070096;28;20234;-39
2022/01/25 16:36:44;;;;;;;24.38;12.07;;;;;;;-9.86;60.44;94137.50;5070019;28;20543;-38
2022/01/25 16:39:13;;;;;;;25.20;12.27;;;;;;;-9.58;60.73;94137.09;5054881;28;20062;-38
2022/01/25 16:41:39;;;;;;;22.48;12.23;;;;;;;-9.91;61.72;94134.50;5089612;28;20028;-39
2022/01/25 16:44:05;;;;;;;25.90;10.68;;;;;;;-10.24;62.93;94138.75;5089635;28;20020;-39
2022/01/25 16:46:32;;;;;;;23.52;11.52;;;;;;;-10.00;63.15;94129.66;5087071;28;20032;-39
2022/01/25 16:48:57;;;;;;;27.88;14.25;;;;;;;-10.14;59.37;94119.19;5080910;28;20037;-38
2022/01/25 16:51:23;;;;;;;20.58;11.05;;;;;;;-10.26;61.76;94127.72;5082071;28;20028;-39
2022/01/25 16:53:49;;;;;;;23.23;11.27;;;;;;;-10.05;61.35;94130.13;5071144;28;20028;-39
2022/01/25 16:56:17;;;;;;;181.52;69.18;;;;;;;-9.91;60.94;94137.16;5071424;28;20025;-38
2022/01/25 16:58:43;;;;;;;164.20;62.78;;;;;;;-9.91;60.52;94137.16;5071699;28;20029;-39
2022/01/25 17:01:09;;;;;;;138.90;50.08;;;;;;;-9.85;61.07;94149.69;5071350;28;20151;-40
2022/01/25 17:03:36;;;;;;;111.20;38.65;;;;;;;-9.87;59.46;94143.25;5053488;28;20036;-39
2022/01/25 17:06:01;;;;;;;133.50;50.17;;;;;;;-10.48;59.29;94108.53;5071440;28;20044;-39
2022/01/25 17:08:27;;;;;;;107.97;44.08;;;;;;;-10.35;61.61;94133.53;5071314;28;20596;-38
2022/01/25 17:10:53;;;;;;;98.70;41.00;;;;;;;-10.25;59.92;94142.59;5071183;28;20064;-39
2022/01/25 17:13:19;;;;;;;92.13;37.50;;;;;;;-10.58;59.11;94114.75;5082450;28;20438;-39
2022/01/25 17:15:49;;;;;;;101.13;44.60;;;;;;;-10.38;59.17;94139.69;5071022;28;20016;-39
2022/01/25 17:18:15;;;;;;;105.85;47.15;;;;;;;-10.53;59.92;94138.34;5070910;28;20387;-38
2022/01/25 17:20:40;;;;;;;98.28;43.55;;;;;;;-10.50;60.34;94150.13;5071034;28;20093;-39
2022/01/25 17:23:06;;;;;;;54.60;30.27;;;;;;;-10.34;58.46;94142.31;5071395;28;20036;-39
2022/01/25 17:25:31;;;;;;;85.70;39.17;;;;;;;-10.64;59.17;94144.94;5071028;28;20473;-39
2022/01/25 17:27:58;;;;;;;100.22;42.65;;;;;;;-10.91;60.30;94145.59;5090907;28;20020;-39
2022/01/25 17:30:24;;;;;;;103.20;42.50;;;;;;;-10.75;60.28;94147.72;5091145;28;20095;-39
2022/01/25 17:32:49;;;;;;;82.55;33.35;;;;;;;-10.79;58.75;94143.56;5073043;28;20028;-39
2022/01/25 17:35:15;;;;;;;72.53;33.85;;;;;;;-10.71;58.19;94158.34;5073225;28;20508;-39
2022/01/25 17:37:41;;;;;;;82.03;34.70;;;;;;;-10.63;58.58;94155.22;5090940;28;20051;-39
2022/01/25 17:40:08;;;;;;;85.57;40.15;;;;;;;-10.72;57.64;94156.84;5082015;28;20166;-39
2022/01/25 17:42:34;;;;;;;88.07;39.47;;;;;;;-10.68;57.92;94161.00;5084287;28;20528;-38
2022/01/25 17:45:00;;;;;;;76.20;37.78;;;;;;;-10.74;57.28;94157.22;5081605;28;20028;-38
2022/01/25 17:47:26;;;;;;;86.00;34.22;;;;;;;-11.15;57.52;94130.56;5070791;28;20070;-39
2022/01/25 17:49:53;;;;;;;75.22;36.03;;;;;;;-11.18;58.02;94167.94;5070433;28;20021;-39
2022/01/25 17:52:19;;;;;;;64.47;34.85;;;;;;;-11.37;58.06;94163.13;5078224;28;20024;-38
2022/01/25 17:54:44;;;;;;;64.82;32.60;;;;;;;-11.53;57.94;94171.59;5070725;28;20021;-38
2022/01/25 17:57:10;;;;;;;47.75;25.80;;;;;;;-11.68;57.43;94178.22;5070741;28;20729;-39
2022/01/25 17:59:36;;;;;;;57.40;27.83;;;;;;;-11.62;58.43;94179.28;5076337;28;20063;-38
2022/01/25 18:02:03;;;;;;;33.90;20.38;;;;;;;-11.84;56.91;94178.66;5075796;28;20108;-39
2022/01/25 18:04:28;;;;;;;39.92;21.15;;;;;;;-11.88;58.75;94179.84;5086466;28;20027;-39
2022/01/25 18:06:54;;;;;;;51.58;19.52;;;;;;;-11.87;58.16;94176.03;5090229;28;20020;-38
2022/01/25 18:09:20;;;;;;;108.82;37.58;;;;;;;-12.68;58.96;94147.88;5090530;28;20023;-39
2022/01/25 18:11:46;;;;;;;73.38;34.08;;;;;;;-12.22;59.80;94176.22;5090280;28;20478;-39
2022/01/25 18:14:12;;;;;;;68.35;32.17;;;;;;;-12.02;58.50;94188.69;5086304;28;20023;-39
2022/01/25 18:16:39;;;;;;;56.15;27.67;;;;;;;-12.07;59.15;94190.97;5070582;28;20051;-39
2022/01/25 18:19:07;;;;;;;67.68;29.10;;;;;;;-12.30;58.10;94185.38;5090496;28;20390;-39
2022/01/25 18:21:35;;;;;;;69.72;25.75;;;;;;;-12.31;58.52;94191.81;5072794;28;20028;-39
2022/01/25 18:24:09;;;;;;;;;;;;;;;-12.21;57.57;94193.69;5070590;28;20037;-39
2022/01/25 18:29:07;;;;;;;66.63;23.45;;;;;;;-12.84;57.51;94182.09;5090241;28;20034;-39
2022/01/25 18:31:33;;;;;;;54.75;21.05;;;;;;;-12.52;58.01;94185.44;5090003;28;20023;-39
2022/01/25 18:33:59;;;;;;;56.78;19.42;;;;;;;-12.91;58.39;94194.63;5089920;28;20421;-38
2022/01/25 18:36:24;;;;;;;61.30;26.95;;;;;;;-13.12;59.03;94186.72;5071360;28;20016;-39
2022/01/25 18:38:58;;;;;;;28.13;14.38;;;;;;;-12.89;58.64;94189.69;5085481;28;20059;-38
2022/01/25 18:41:24;;;;;;;52.22;20.88;;;;;;;-12.97;58.32;94196.19;5067493;28;20036;-39
2022/01/25 18:43:50;;;;;;;38.50;14.75;;;;;;;-12.73;59.16;94185.47;5067390;28;20025;-39
2022/01/25 18:46:15;;;;;;;51.35;19.10;;;;;;;-12.79;58.87;94186.25;5049466;28;20024;-39
2022/01/25 18:48:43;;;;;;;84.38;31.48;;;;;;;-13.12;58.04;94195.44;5072270;28;20032;-39
2022/01/25 18:51:08;;;;;;;64.43;29.25;;;;;;;-13.31;57.49;94198.47;5075859;28;20611;-39
2022/01/25 18:53:34;;;;;;;86.90;40.65;;;;;;;-13.21;58.60;94195.09;5085701;28;20068;-38
2022/01/25 18:56:00;;;;;;;101.05;44.90;;;;;;;-12.96;56.88;94200.34;5073471;28;20116;-39
2022/01/25 18:58:26;;;;;;;103.53;46.75;;;;;;;-13.21;56.91;94198.47;5081464;28;20103;-38
2022/01/25 19:00:52;;;;;;;92.60;42.33;;;;;;;-13.57;57.59;94198.84;5078684;28;20447;-39
2022/01/25 19:03:18;;;;;;;89.55;37.08;;;;;;;-13.37;57.41;94184.06;5067706;28;20048;-38
2022/01/25 19:05:44;;;;;;;80.15;35.38;;;;;;;-13.72;57.71;94210.59;5067245;28;20020;-38
2022/01/25 19:08:10;;;;;;;101.18;40.92;;;;;;;-13.59;57.37;94203.78;5067481;28;20024;-38
2022/01/25 19:10:36;;;;;;;72.35;29.75;;;;;;;-13.36;58.61;94204.94;5066982;28;20057;-39
2022/01/25 19:13:02;;;;;;;85.93;33.90;;;;;;;-13.27;57.87;94199.22;5065961;28;20103;-38
2022/01/25 19:15:28;;;;;;;100.45;41.22;;;;;;;-13.47;57.93;94195.47;5049435;28;20028;-39
2022/01/25 19:17:54;;;;;;;55.33;31.52;;;;;;;-13.72;56.68;94165.47;5069981;28;20581;-39
2022/01/25 19:20:19;;;;;;;84.13;30.13;;;;;;;-13.77;56.58;94197.69;5071208;28;20028;-38
2022/01/25 19:22:45;;;;;;;69.55;33.67;;;;;;;-13.62;56.86;94192.00;5087316;28;20031;-38
2022/01/25 19:25:11;;;;;;;56.08;22.38;;;;;;;-13.88;57.59;94196.91;5091432;28;20089;-39
2022/01/25 19:27:37;;;;;;;47.90;20.05;;;;;;;-13.87;56.06;94199.19;5073265;28;20039;-39
2022/01/25 19:30:05;;;;;;;29.52;13.13;;;;;;;-14.39;55.75;94195.28;5070788;28;20077;-38
2022/01/25 19:32:32;;;;;;;24.42;9.30;;;;;;;-14.08;55.86;94193.84;5070985;28;20063;-38
2022/01/25 19:34:59;;;;;;;22.83;12.85;;;;;;;-14.12;56.06;94193.81;5070906;28;20033;-38
2022/01/25 19:37:26;;;;;;;29.43;16.40;;;;;;;-14.08;56.25;94191.94;5052832;28;20024;-39
2022/01/25 19:39:55;;;;;;;34.50;16.67;;;;;;;-14.34;56.50;94186.19;5070735;28;20066;-38